sensor_id;sensor_type;location;lat;lon;timestamp;pressure;altitude;pressure_sealevel;temperature;humidity
53932;BME280;39844;52.496;13.482;2023-07-16T00:00:10;100472.59;;;22.34;96.75
53932;BME280;39844;52.496;13.482;2023-07-16T00:02:37;100461.00;;;22.33;94.83
53932;BME280;39844;52.496;13.482;2023-07-16T00:05:03;100463.69;;;22.33;94.13
53932;BME280;39844;52.496;13.482;2023-07-16T00:07:28;100477.06;;;22.33;92.80
53932;BME280;39844;52.496;13.482;2023-07-16T00:09:53;100472.59;;;22.34;93.08
53932;BME280;39844;52.496;13.482;2023-07-16T00:12:19;100469.13;;;22.32;90.82
53932;BME280;39844;52.496;13.482;2023-07-16T00:14:44;100473.63;;;22.31;90.00
53932;BME280;39844;52.496;13.482;2023-07-16T00:17:09;100480.50;;;22.35;90.49
53932;BME280;39844;52.496;13.482;2023-07-16T00:19:35;100474.06;;;22.39;90.13
53932;BME280;39844;52.496;13.482;2023-07-16T00:22:00;100486.41;;;22.42;90.25
53932;BME280;39844;52.496;13.482;2023-07-16T00:24:25;100489.94;;;22.42;89.62
53932;BME280;39844;52.496;13.482;2023-07-16T00:26:50;100481.81;;;22.44;90.99
53932;BME280;39844;52.496;13.482;2023-07-16T00:29:16;100474.50;;;22.47;93.87
53932;BME280;39844;52.496;13.482;2023-07-16T00:31:41;100486.91;;;22.48;96.03
53932;BME280;39844;52.496;13.482;2023-07-16T00:34:06;100488.03;;;22.44;96.55
53932;BME280;39844;52.496;13.482;2023-07-16T00:36:32;100490.00;;;22.41;98.01
53932;BME280;39844;52.496;13.482;2023-07-16T00:38:57;100497.16;;;22.40;99.25
53932;BME280;39844;52.496;13.482;2023-07-16T00:41:22;100494.69;;;22.37;100.00
53932;BME280;39844;52.496;13.482;2023-07-16T00:43:47;100509.16;;;22.33;100.00
53932;BME280;39844;52.496;13.482;2023-07-16T00:46:13;100523.66;;;22.29;100.00
53932;BME280;39844;52.496;13.482;2023-07-16T00:48:40;100534.69;;;22.23;100.00
53932;BME280;39844;52.496;13.482;2023-07-16T00:51:05;100534.84;;;22.20;100.00
53932;BME280;39844;52.496;13.482;2023-07-16T00:53:31;100550.22;;;22.17;100.00
53932;BME280;39844;52.496;13.482;2023-07-16T00:55:56;100567.28;;;22.14;99.05
53932;BME280;39844;52.496;13.482;2023-07-16T00:58:22;100576.25;;;22.13;98.42
53932;BME280;39844;52.496;13.482;2023-07-16T01:00:50;100580.72;;;22.13;97.63
53932;BME280;39844;52.496;13.482;2023-07-16T01:03:16;100596.00;;;22.11;97.51
53932;BME280;39844;52.496;13.482;2023-07-16T01:06:00;100627.31;;;22.09;97.31
53932;BME280;39844;52.496;13.482;2023-07-16T01:08:37;100650.59;;;22.07;96.97
53932;BME280;39844;52.496;13.482;2023-07-16T01:11:04;100685.25;;;22.08;96.82
53932;BME280;39844;52.496;13.482;2023-07-16T01:13:29;100696.88;;;22.07;96.59
53932;BME280;39844;52.496;13.482;2023-07-16T01:15:55;100717.50;;;22.05;96.15
53932;BME280;39844;52.496;13.482;2023-07-16T01:18:21;100761.25;;;22.04;96.29
53932;BME280;39844;52.496;13.482;2023-07-16T01:20:46;100772.84;;;22.03;96.35
53932;BME280;39844;52.496;13.482;2023-07-16T01:23:39;100787.34;;;21.99;97.24
53932;BME280;39844;52.496;13.482;2023-07-16T01:26:32;100796.75;;;21.89;97.67
53932;BME280;39844;52.496;13.482;2023-07-16T01:29:21;100790.88;;;21.81;96.67
53932;BME280;39844;52.496;13.482;2023-07-16T01:31:54;100792.03;;;21.75;97.35
53932;BME280;39844;52.496;13.482;2023-07-16T01:34:21;100798.41;;;21.73;98.10
53932;BME280;39844;52.496;13.482;2023-07-16T01:36:47;100807.50;;;21.69;97.75
53932;BME280;39844;52.496;13.482;2023-07-16T01:39:13;100803.97;;;21.68;96.62
53932;BME280;39844;52.496;13.482;2023-07-16T01:41:39;100789.75;;;21.68;96.06
53932;BME280;39844;52.496;13.482;2023-07-16T01:44:04;100778.03;;;21.70;94.90
53932;BME280;39844;52.496;13.482;2023-07-16T01:46:29;100784.09;;;21.74;93.15
53932;BME280;39844;52.496;13.482;2023-07-16T01:48:55;100774.03;;;21.79;91.54
53932;BME280;39844;52.496;13.482;2023-07-16T01:51:20;100770.28;;;21.83;90.71
53932;BME280;39844;52.496;13.482;2023-07-16T01:53:46;100762.94;;;21.88;89.85
53932;BME280;39844;52.496;13.482;2023-07-16T01:56:12;100770.72;;;21.92;88.56
53932;BME280;39844;52.496;13.482;2023-07-16T01:58:37;100756.28;;;21.96;87.19
53932;BME280;39844;52.496;13.482;2023-07-16T02:01:03;100776.31;;;22.05;86.43
53932;BME280;39844;52.496;13.482;2023-07-16T02:03:28;100783.16;;;22.11;84.60
53932;BME280;39844;52.496;13.482;2023-07-16T02:05:53;100784.69;;;22.16;83.38
53932;BME280;39844;52.496;13.482;2023-07-16T02:08:18;100773.59;;;22.24;81.59
53932;BME280;39844;52.496;13.482;2023-07-16T02:10:44;100778.53;;;22.31;81.57
53932;BME280;39844;52.496;13.482;2023-07-16T02:13:09;100767.44;;;22.39;80.53
53932;BME280;39844;52.496;13.482;2023-07-16T02:15:35;100755.56;;;22.44;80.24
53932;BME280;39844;52.496;13.482;2023-07-16T02:18:00;100759.78;;;22.48;78.98
53932;BME280;39844;52.496;13.482;2023-07-16T02:20:25;100756.88;;;22.53;77.83
53932;BME280;39844;52.496;13.482;2023-07-16T02:22:51;100763.88;;;22.55;79.03
53932;BME280;39844;52.496;13.482;2023-07-16T02:25:16;100765.09;;;22.50;79.17
53932;BME280;39844;52.496;13.482;2023-07-16T02:27:41;100779.66;;;22.44;79.44
53932;BME280;39844;52.496;13.482;2023-07-16T02:30:07;100797.75;;;22.39;81.23
53932;BME280;39844;52.496;13.482;2023-07-16T02:32:33;100800.88;;;22.30;81.96
53932;BME280;39844;52.496;13.482;2023-07-16T02:34:59;100827.31;;;22.19;84.25
53932;BME280;39844;52.496;13.482;2023-07-16T02:37:24;100813.47;;;22.11;86.14
53932;BME280;39844;52.496;13.482;2023-07-16T02:39:49;100794.41;;;22.00;87.33
53932;BME280;39844;52.496;13.482;2023-07-16T02:42:15;100783.22;;;21.92;88.30
53932;BME280;39844;52.496;13.482;2023-07-16T02:44:40;100767.69;;;21.81;88.33
53932;BME280;39844;52.496;13.482;2023-07-16T02:47:08;100780.34;;;21.78;90.06
53932;BME280;39844;52.496;13.482;2023-07-16T02:49:33;100792.19;;;21.72;92.42
53932;BME280;39844;52.496;13.482;2023-07-16T02:51:58;100791.47;;;21.69;93.02
53932;BME280;39844;52.496;13.482;2023-07-16T02:54:24;100803.38;;;21.62;93.70
53932;BME280;39844;52.496;13.482;2023-07-16T02:56:49;100794.88;;;21.54;94.52
53932;BME280;39844;52.496;13.482;2023-07-16T02:59:14;100809.47;;;21.47;95.99
53932;BME280;39844;52.496;13.482;2023-07-16T03:01:39;100821.25;;;21.42;97.89
53932;BME280;39844;52.496;13.482;2023-07-16T03:04:05;100824.19;;;21.36;98.79
53932;BME280;39844;52.496;13.482;2023-07-16T03:06:30;100827.00;;;21.33;99.51
53932;BME280;39844;52.496;13.482;2023-07-16T03:08:55;100815.63;;;21.30;100.00
53932;BME280;39844;52.496;13.482;2023-07-16T03:11:21;100812.94;;;21.30;100.00
53932;BME280;39844;52.496;13.482;2023-07-16T03:13:46;100799.81;;;21.25;100.00
53932;BME280;39844;52.496;13.482;2023-07-16T03:16:11;100792.59;;;21.27;100.00
53932;BME280;39844;52.496;13.482;2023-07-16T03:18:37;100780.03;;;21.29;100.00
53932;BME280;39844;52.496;13.482;2023-07-16T03:21:02;100775.59;;;21.28;100.00
53932;BME280;39844;52.496;13.482;2023-07-16T03:23:27;100747.41;;;21.23;100.00
53932;BME280;39844;52.496;13.482;2023-07-16T03:25:55;100774.31;;;21.18;100.00
53932;BME280;39844;52.496;13.482;2023-07-16T03:28:20;100774.63;;;21.12;100.00
53932;BME280;39844;52.496;13.482;2023-07-16T03:30:47;100753.44;;;21.08;100.00
53932;BME280;39844;52.496;13.482;2023-07-16T03:33:13;100748.97;;;21.08;100.00
53932;BME280;39844;52.496;13.482;2023-07-16T03:35:38;100763.28;;;21.07;100.00
53932;BME280;39844;52.496;13.482;2023-07-16T03:38:03;100761.78;;;21.00;100.00
53932;BME280;39844;52.496;13.482;2023-07-16T03:40:28;100767.28;;;20.97;100.00
53932;BME280;39844;52.496;13.482;2023-07-16T03:42:54;100787.09;;;20.92;100.00
53932;BME280;39844;52.496;13.482;2023-07-16T03:45:19;100778.50;;;20.85;100.00
53932;BME280;39844;52.496;13.482;2023-07-16T03:47:45;100746.78;;;20.79;100.00
53932;BME280;39844;52.496;13.482;2023-07-16T03:50:10;100727.13;;;20.80;100.00
53932;BME280;39844;52.496;13.482;2023-07-16T03:52:35;100764.66;;;20.77;100.00
53932;BME280;39844;52.496;13.482;2023-07-16T03:55:01;100749.56;;;20.76;100.00
53932;BME280;39844;52.496;13.482;2023-07-16T03:57:29;100753.25;;;20.73;100.00
53932;BME280;39844;52.496;13.482;2023-07-16T03:59:55;100756.91;;;20.71;100.00
53932;BME280;39844;52.496;13.482;2023-07-16T04:02:20;100764.78;;;20.74;100.00
53932;BME280;39844;52.496;13.482;2023-07-16T04:04:45;100778.19;;;20.72;100.00
53932;BME280;39844;52.496;13.482;2023-07-16T04:07:11;100781.66;;;20.74;100.00
53932;BME280;39844;52.496;13.482;2023-07-16T04:09:39;100785.19;;;20.75;100.00
53932;BME280;39844;52.496;13.482;2023-07-16T04:12:07;100797.69;;;20.74;100.00
53932;BME280;39844;52.496;13.482;2023-07-16T04:14:33;100787.84;;;20.75;100.00
53932;BME280;39844;52.496;13.482;2023-07-16T04:16:58;100785.19;;;20.75;100.00
53932;BME280;39844;52.496;13.482;2023-07-16T04:19:23;100787.84;;;20.75;100.00
53932;BME280;39844;52.496;13.482;2023-07-16T04:21:49;100777.19;;;20.75;100.00
53932;BME280;39844;52.496;13.482;2023-07-16T04:24:14;100778.91;;;20.76;100.00
53932;BME280;39844;52.496;13.482;2023-07-16T04:26:39;100788.66;;;20.77;100.00
53932;BME280;39844;52.496;13.482;2023-07-16T04:29:05;100798.25;;;20.81;100.00
53932;BME280;39844;52.496;13.482;2023-07-16T04:31:30;100801.72;;;20.83;100.00
53932;BME280;39844;52.496;13.482;2023-07-16T04:33:55;100809.69;;;20.85;100.00
53932;BME280;39844;52.496;13.482;2023-07-16T04:36:20;100818.53;;;20.85;100.00
53932;BME280;39844;52.496;13.482;2023-07-16T04:38:46;100810.47;;;20.87;100.00
53932;BME280;39844;52.496;13.482;2023-07-16T04:41:11;100806.00;;;20.87;100.00
53932;BME280;39844;52.496;13.482;2023-07-16T04:43:36;100814.06;;;20.86;100.00
53932;BME280;39844;52.496;13.482;2023-07-16T04:46:02;100823.03;;;20.85;100.00
53932;BME280;39844;52.496;13.482;2023-07-16T04:48:27;100831.88;;;20.85;100.00
53932;BME280;39844;52.496;13.482;2023-07-16T04:50:52;100823.94;;;20.84;100.00
53932;BME280;39844;52.496;13.482;2023-07-16T04:53:18;100824.81;;;20.84;100.00
53932;BME280;39844;52.496;13.482;2023-07-16T04:55:43;100844.41;;;20.83;100.00
53932;BME280;39844;52.496;13.482;2023-07-16T04:58:10;100847.03;;;20.85;100.00
53932;BME280;39844;52.496;13.482;2023-07-16T05:00:36;100861.28;;;20.84;100.00
53932;BME280;39844;52.496;13.482;2023-07-16T05:03:01;100847.97;;;20.84;100.00
53932;BME280;39844;52.496;13.482;2023-07-16T05:05:26;100846.06;;;20.86;100.00
53932;BME280;39844;52.496;13.482;2023-07-16T05:07:52;100849.63;;;20.86;100.00
53932;BME280;39844;52.496;13.482;2023-07-16T05:10:17;100873.56;;;20.88;100.00
53932;BME280;39844;52.496;13.482;2023-07-16T05:12:42;100878.91;;;20.88;100.00
53932;BME280;39844;52.496;13.482;2023-07-16T05:15:08;100884.06;;;20.92;100.00
53932;BME280;39844;52.496;13.482;2023-07-16T05:17:33;100883.91;;;20.95;100.00
53932;BME280;39844;52.496;13.482;2023-07-16T05:19:59;100896.19;;;20.99;100.00
53932;BME280;39844;52.496;13.482;2023-07-16T05:22:24;100897.88;;;21.02;100.00
53932;BME280;39844;52.496;13.482;2023-07-16T05:24:49;100887.81;;;21.08;100.00
53932;BME280;39844;52.496;13.482;2023-07-16T05:27:15;100882.19;;;21.14;100.00
53932;BME280;39844;52.496;13.482;2023-07-16T05:29:40;100875.84;;;21.17;100.00
53932;BME280;39844;52.496;13.482;2023-07-16T05:32:05;100862.16;;;21.24;100.00
53932;BME280;39844;52.496;13.482;2023-07-16T05:34:31;100869.72;;;21.33;100.00
53932;BME280;39844;52.496;13.482;2023-07-16T05:36:56;100861.19;;;21.46;100.00
53932;BME280;39844;52.496;13.482;2023-07-16T05:39:22;100865.94;;;21.58;99.08
53932;BME280;39844;52.496;13.482;2023-07-16T05:41:47;100865.50;;;21.67;97.37
53932;BME280;39844;52.496;13.482;2023-07-16T05:44:12;100880.50;;;21.69;96.40
53932;BME280;39844;52.496;13.482;2023-07-16T05:46:38;100879.63;;;21.69;94.98
53932;BME280;39844;52.496;13.482;2023-07-16T05:49:03;100897.56;;;21.67;93.83
53932;BME280;39844;52.496;13.482;2023-07-16T05:51:28;100893.81;;;21.71;94.39
53932;BME280;39844;52.496;13.482;2023-07-16T05:53:54;100892.81;;;21.73;94.21
53932;BME280;39844;52.496;13.482;2023-07-16T05:56:19;100893.66;;;21.74;93.28
53932;BME280;39844;52.496;13.482;2023-07-16T05:58:44;100887.47;;;21.73;93.33
53932;BME280;39844;52.496;13.482;2023-07-16T06:01:10;100882.91;;;21.75;93.99
53932;BME280;39844;52.496;13.482;2023-07-16T06:03:35;100883.78;;;21.76;93.75
53932;BME280;39844;52.496;13.482;2023-07-16T06:06:00;100902.25;;;21.80;93.85
53932;BME280;39844;52.496;13.482;2023-07-16T06:08:26;100897.66;;;21.84;92.67
53932;BME280;39844;52.496;13.482;2023-07-16T06:10:51;100896.69;;;21.85;92.87
53932;BME280;39844;52.496;13.482;2023-07-16T06:13:17;100905.63;;;21.85;91.77
53932;BME280;39844;52.496;13.482;2023-07-16T06:15:42;100898.34;;;21.89;92.36
53932;BME280;39844;52.496;13.482;2023-07-16T06:18:08;100893.63;;;21.94;92.42
53932;BME280;39844;52.496;13.482;2023-07-16T06:20:34;100888.28;;;21.94;90.80
53932;BME280;39844;52.496;13.482;2023-07-16T06:22:59;100905.75;;;22.01;91.59
53932;BME280;39844;52.496;13.482;2023-07-16T06:25:24;100897.59;;;22.04;90.93
53932;BME280;39844;52.496;13.482;2023-07-16T06:27:49;100901.06;;;22.06;91.10
53932;BME280;39844;52.496;13.482;2023-07-16T06:30:15;100900.09;;;22.07;89.70
53932;BME280;39844;52.496;13.482;2023-07-16T06:32:40;100904.53;;;22.08;89.55
53932;BME280;39844;52.496;13.482;2023-07-16T06:35:06;100907.06;;;22.11;88.04
53932;BME280;39844;52.496;13.482;2023-07-16T06:37:31;100908.72;;;22.14;87.96
53932;BME280;39844;52.496;13.482;2023-07-16T06:39:57;100913.81;;;22.18;87.88
53932;BME280;39844;52.496;13.482;2023-07-16T06:42:22;100915.41;;;22.22;86.63
53932;BME280;39844;52.496;13.482;2023-07-16T06:44:47;100910.69;;;22.27;87.37
53932;BME280;39844;52.496;13.482;2023-07-16T06:47:12;100905.03;;;22.33;86.19
53932;BME280;39844;52.496;13.482;2023-07-16T06:49:38;100918.28;;;22.36;84.48
53932;BME280;39844;52.496;13.482;2023-07-16T06:52:03;100916.16;;;22.43;84.77
53932;BME280;39844;52.496;13.482;2023-07-16T06:54:29;100922.09;;;22.49;84.10
53932;BME280;39844;52.496;13.482;2023-07-16T06:56:54;100924.44;;;22.55;81.64
53932;BME280;39844;52.496;13.482;2023-07-16T06:59:19;100924.03;;;22.64;82.57
53932;BME280;39844;52.496;13.482;2023-07-16T07:01:45;100933.38;;;22.73;81.36
53932;BME280;39844;52.496;13.482;2023-07-16T07:04:10;100926.78;;;22.80;79.68
53932;BME280;39844;52.496;13.482;2023-07-16T07:06:35;100926.41;;;22.88;79.69
53932;BME280;39844;52.496;13.482;2023-07-16T07:09:00;100926.69;;;22.99;78.08
53932;BME280;39844;52.496;13.482;2023-07-16T07:11:26;100945.75;;;23.10;77.12
53932;BME280;39844;52.496;13.482;2023-07-16T07:13:52;100946.22;;;23.18;77.48
53932;BME280;39844;52.496;13.482;2023-07-16T07:16:17;100931.31;;;23.29;76.43
53932;BME280;39844;52.496;13.482;2023-07-16T07:18:42;100946.06;;;23.38;75.16
53932;BME280;39844;52.496;13.482;2023-07-16T07:21:08;100948.50;;;23.43;75.02
53932;BME280;39844;52.496;13.482;2023-07-16T07:23:33;100948.25;;;23.47;74.08
53932;BME280;39844;52.496;13.482;2023-07-16T07:25:58;100943.66;;;23.49;73.16
53932;BME280;39844;52.496;13.482;2023-07-16T07:28:24;100953.59;;;23.47;72.56
53932;BME280;39844;52.496;13.482;2023-07-16T07:30:49;100954.38;;;23.49;72.94
53932;BME280;39844;52.496;13.482;2023-07-16T07:33:14;100949.75;;;23.53;73.23
53932;BME280;39844;52.496;13.482;2023-07-16T07:35:40;100967.47;;;23.55;72.31
53932;BME280;39844;52.496;13.482;2023-07-16T07:38:05;100948.88;;;23.52;71.55
53932;BME280;39844;52.496;13.482;2023-07-16T07:40:30;100957.94;;;23.50;72.04
53932;BME280;39844;52.496;13.482;2023-07-16T07:42:55;100964.28;;;23.49;72.82
53932;BME280;39844;52.496;13.482;2023-07-16T07:45:21;100959.94;;;23.46;72.87
53932;BME280;39844;52.496;13.482;2023-07-16T07:47:46;100959.53;;;23.54;72.61
53932;BME280;39844;52.496;13.482;2023-07-16T07:50:11;100962.56;;;23.63;71.58
53932;BME280;39844;52.496;13.482;2023-07-16T07:52:37;100965.91;;;23.84;72.11
53932;BME280;39844;52.496;13.482;2023-07-16T07:55:02;100967.81;;;23.98;69.86
53932;BME280;39844;52.496;13.482;2023-07-16T07:57:28;100952.16;;;24.06;70.42
53932;BME280;39844;52.496;13.482;2023-07-16T07:59:53;100954.22;;;24.18;69.75
53932;BME280;39844;52.496;13.482;2023-07-16T08:02:19;100956.69;;;24.21;67.95
53932;BME280;39844;52.496;13.482;2023-07-16T08:04:44;100968.41;;;24.20;68.56
53932;BME280;39844;52.496;13.482;2023-07-16T08:07:09;100969.59;;;24.14;67.39
53932;BME280;39844;52.496;13.482;2023-07-16T08:09:37;100990.84;;;24.02;65.68
53932;BME280;39844;52.496;13.482;2023-07-16T08:12:02;100985.28;;;23.89;64.83
53932;BME280;39844;52.496;13.482;2023-07-16T08:14:28;100988.66;;;23.77;65.59
53932;BME280;39844;52.496;13.482;2023-07-16T08:16:53;100986.53;;;23.66;66.11
53932;BME280;39844;52.496;13.482;2023-07-16T08:19:18;100975.88;;;23.65;66.19
53932;BME280;39844;52.496;13.482;2023-07-16T08:21:44;100986.81;;;23.77;67.41
53932;BME280;39844;52.496;13.482;2023-07-16T08:24:09;100987.88;;;23.90;67.24
53932;BME280;39844;52.496;13.482;2023-07-16T08:26:34;100986.56;;;23.98;67.46
53932;BME280;39844;52.496;13.482;2023-07-16T08:29:00;100998.34;;;23.95;64.33
53932;BME280;39844;52.496;13.482;2023-07-16T08:31:25;100994.97;;;23.92;62.73
53932;BME280;39844;52.496;13.482;2023-07-16T08:33:50;100997.03;;;23.86;61.53
53932;BME280;39844;52.496;13.482;2023-07-16T08:36:15;100999.88;;;23.83;60.77
53932;BME280;39844;52.496;13.482;2023-07-16T08:38:41;101008.09;;;23.80;60.23
53932;BME280;39844;52.496;13.482;2023-07-16T08:41:06;101002.22;;;23.74;58.92
53932;BME280;39844;52.496;13.482;2023-07-16T08:43:32;101006.69;;;23.73;60.25
53932;BME280;39844;52.496;13.482;2023-07-16T08:45:58;101008.50;;;23.73;60.17
53932;BME280;39844;52.496;13.482;2023-07-16T08:48:24;101006.53;;;23.76;59.88
53932;BME280;39844;52.496;13.482;2023-07-16T08:50:50;101015.03;;;23.84;61.18
53932;BME280;39844;52.496;13.482;2023-07-16T08:53:15;101007.63;;;23.89;60.80
53932;BME280;39844;52.496;13.482;2023-07-16T08:55:43;101004.50;;;23.97;60.72
53932;BME280;39844;52.496;13.482;2023-07-16T08:58:09;101013.72;;;24.09;60.13
53932;BME280;39844;52.496;13.482;2023-07-16T09:00:35;101010.56;;;24.18;58.70
53932;BME280;39844;52.496;13.482;2023-07-16T09:03:01;101011.22;;;24.21;57.58
53932;BME280;39844;52.496;13.482;2023-07-16T09:05:28;101011.22;;;24.21;57.55
53932;BME280;39844;52.496;13.482;2023-07-16T09:07:54;101012.19;;;24.20;56.11
53932;BME280;39844;52.496;13.482;2023-07-16T09:10:22;101016.53;;;24.23;55.36
53932;BME280;39844;52.496;13.482;2023-07-16T09:12:47;101022.72;;;24.23;55.67
53932;BME280;39844;52.496;13.482;2023-07-16T09:15:18;101015.28;;;24.28;56.32
53932;BME280;39844;52.496;13.482;2023-07-16T09:17:47;101020.31;;;24.34;55.95
53932;BME280;39844;52.496;13.482;2023-07-16T09:20:17;101026.63;;;24.33;55.39
53932;BME280;39844;52.496;13.482;2023-07-16T09:22:43;101016.72;;;24.35;56.41
53932;BME280;39844;52.496;13.482;2023-07-16T09:25:09;101002.16;;;24.39;55.76
53932;BME280;39844;52.496;13.482;2023-07-16T09:27:34;101008.72;;;24.49;56.64
53932;BME280;39844;52.496;13.482;2023-07-16T09:29:59;101017.13;;;24.59;56.67
53932;BME280;39844;52.496;13.482;2023-07-16T09:32:38;101008.38;;;24.71;55.27
53932;BME280;39844;52.496;13.482;2023-07-16T09:35:09;101020.16;;;24.84;55.44
53932;BME280;39844;52.496;13.482;2023-07-16T09:37:38;101020.63;;;25.06;55.35
53932;BME280;39844;52.496;13.482;2023-07-16T09:40:08;101015.88;;;25.26;53.94
53932;BME280;39844;52.496;13.482;2023-07-16T09:42:39;101016.34;;;25.48;54.14
53932;BME280;39844;52.496;13.482;2023-07-16T09:45:06;101013.28;;;25.68;54.00
53932;BME280;39844;52.496;13.482;2023-07-16T09:47:32;101021.75;;;25.76;52.73
53932;BME280;39844;52.496;13.482;2023-07-16T09:49:57;101016.41;;;25.90;52.09
53932;BME280;39844;52.496;13.482;2023-07-16T09:52:23;101022.34;;;25.95;51.65
53932;BME280;39844;52.496;13.482;2023-07-16T09:54:53;101019.19;;;26.03;50.38
53932;BME280;39844;52.496;13.482;2023-07-16T09:57:20;101029.97;;;26.17;49.26
53932;BME280;39844;52.496;13.482;2023-07-16T09:59:46;101032.81;;;26.42;48.32
53932;BME280;39844;52.496;13.482;2023-07-16T10:02:12;101027.22;;;26.59;48.70
53932;BME280;39844;52.496;13.482;2023-07-16T10:04:39;101022.56;;;27.02;47.26
53932;BME280;39844;52.496;13.482;2023-07-16T10:10:11;101026.78;;;27.71;45.54
53932;BME280;39844;52.496;13.482;2023-07-16T10:12:37;101026.34;;;28.02;44.51
53932;BME280;39844;52.496;13.482;2023-07-16T10:15:03;101035.97;;;28.06;42.79
53932;BME280;39844;52.496;13.482;2023-07-16T10:17:30;101039.22;;;28.11;44.48
53932;BME280;39844;52.496;13.482;2023-07-16T10:19:56;101032.19;;;28.21;44.17
53932;BME280;39844;52.496;13.482;2023-07-16T10:22:39;101034.63;;;28.37;44.25
53932;BME280;39844;52.496;13.482;2023-07-16T10:25:23;101022.50;;;28.78;43.62
53932;BME280;39844;52.496;13.482;2023-07-16T10:27:50;101022.13;;;28.96;42.81
53932;BME280;39844;52.496;13.482;2023-07-16T10:30:17;101025.84;;;29.06;42.62
53932;BME280;39844;52.496;13.482;2023-07-16T10:32:43;101020.44;;;29.06;41.53
53932;BME280;39844;52.496;13.482;2023-07-16T10:35:10;101027.19;;;29.11;41.18
53932;BME280;39844;52.496;13.482;2023-07-16T10:37:36;101025.97;;;29.28;40.60
53932;BME280;39844;52.496;13.482;2023-07-16T10:40:03;101029.63;;;29.27;40.47
53932;BME280;39844;52.496;13.482;2023-07-16T10:42:29;101022.78;;;29.34;39.95
53932;BME280;39844;52.496;13.482;2023-07-16T10:44:59;101033.34;;;29.37;39.68
53932;BME280;39844;52.496;13.482;2023-07-16T10:47:29;101028.97;;;29.47;39.92
53932;BME280;39844;52.496;13.482;2023-07-16T10:49:55;101035.72;;;30.10;40.12
53932;BME280;39844;52.496;13.482;2023-07-16T10:52:21;101042.25;;;30.51;40.36
53932;BME280;39844;52.496;13.482;2023-07-16T10:54:48;101039.28;;;30.21;40.66
53932;BME280;39844;52.496;13.482;2023-07-16T10:57:13;101037.78;;;30.61;40.11
53932;BME280;39844;52.496;13.482;2023-07-16T10:59:39;101026.59;;;30.55;39.50
53932;BME280;39844;52.496;13.482;2023-07-16T11:02:08;101033.69;;;30.78;39.01
53932;BME280;39844;52.496;13.482;2023-07-16T11:07:06;101046.81;;;30.07;40.23
53932;BME280;39844;52.496;13.482;2023-07-16T11:09:31;101039.84;;;29.23;40.85
53932;BME280;39844;52.496;13.482;2023-07-16T11:12:08;101045.47;;;28.60;42.12
53932;BME280;39844;52.496;13.482;2023-07-16T11:14:34;101050.94;;;28.35;43.57
53932;BME280;39844;52.496;13.482;2023-07-16T11:17:07;101044.47;;;28.00;43.83
53932;BME280;39844;52.496;13.482;2023-07-16T11:22:38;101053.44;;;27.88;45.66
53932;BME280;39844;52.496;13.482;2023-07-16T11:25:10;101044.41;;;28.63;43.68
53932;BME280;39844;52.496;13.482;2023-07-16T11:27:36;101044.06;;;29.15;41.01
53932;BME280;39844;52.496;13.482;2023-07-16T11:30:01;101055.91;;;29.01;41.72
53932;BME280;39844;52.496;13.482;2023-07-16T11:34:56;101048.56;;;28.31;43.56
53932;BME280;39844;52.496;13.482;2023-07-16T11:37:24;101049.47;;;28.06;44.98
53932;BME280;39844;52.496;13.482;2023-07-16T11:39:54;101049.78;;;27.89;45.09
53932;BME280;39844;52.496;13.482;2023-07-16T11:42:33;101050.09;;;27.84;44.60
53932;BME280;39844;52.496;13.482;2023-07-16T11:44:59;101035.50;;;27.62;44.96
53932;BME280;39844;52.496;13.482;2023-07-16T11:47:25;101044.47;;;27.49;46.73
53932;BME280;39844;52.496;13.482;2023-07-16T11:49:51;101046.56;;;27.32;45.53
53932;BME280;39844;52.496;13.482;2023-07-16T11:52:24;101054.41;;;27.62;45.13
53932;BME280;39844;52.496;13.482;2023-07-16T11:54:52;101055.09;;;28.03;43.59
53932;BME280;39844;52.496;13.482;2023-07-16T11:57:17;101042.53;;;28.40;42.83
53932;BME280;39844;52.496;13.482;2023-07-16T11:59:43;101038.66;;;28.91;41.88
53932;BME280;39844;52.496;13.482;2023-07-16T12:02:08;101038.66;;;29.38;41.04
53932;BME280;39844;52.496;13.482;2023-07-16T12:04:34;101047.25;;;29.78;40.66
53932;BME280;39844;52.496;13.482;2023-07-16T12:06:59;101037.44;;;29.99;37.78
53932;BME280;39844;52.496;13.482;2023-07-16T12:09:24;101031.53;;;30.50;37.45
53932;BME280;39844;52.496;13.482;2023-07-16T12:11:50;101020.69;;;30.61;36.15
53932;BME280;39844;52.496;13.482;2023-07-16T12:14:15;101033.44;;;30.81;35.65
53932;BME280;39844;52.496;13.482;2023-07-16T12:16:40;101023.97;;;31.07;32.39
53932;BME280;39844;52.496;13.482;2023-07-16T12:19:08;101019.03;;;31.12;30.76
53932;BME280;39844;52.496;13.482;2023-07-16T12:21:33;101025.44;;;30.91;30.62
53932;BME280;39844;52.496;13.482;2023-07-16T12:23:58;101036.66;;;30.75;29.96
53932;BME280;39844;52.496;13.482;2023-07-16T12:26:24;101035.94;;;30.73;29.80
53932;BME280;39844;52.496;13.482;2023-07-16T12:28:49;101028.75;;;30.72;29.69
53932;BME280;39844;52.496;13.482;2023-07-16T12:31:15;101038.88;;;30.81;30.50
53932;BME280;39844;52.496;13.482;2023-07-16T12:33:40;101046.47;;;30.87;30.45
53932;BME280;39844;52.496;13.482;2023-07-16T12:36:05;101037.22;;;30.90;30.42
53932;BME280;39844;52.496;13.482;2023-07-16T12:38:30;101047.94;;;31.02;30.85
53932;BME280;39844;52.496;13.482;2023-07-16T12:40:56;101030.72;;;30.92;30.73
53932;BME280;39844;52.496;13.482;2023-07-16T12:43:21;101039.94;;;30.90;30.48